createdAt,value
2023-02-22T00:01:21.940Z,100297.09
2023-02-22T00:03:52.691Z,100297.41
2023-02-22T00:06:25.860Z,100298.94
2023-02-22T00:08:56.452Z,100297.34
2023-02-22T00:11:26.038Z,100298.88
2023-02-22T00:13:57.438Z,100303.88
2023-02-22T00:16:27.877Z,100301.19
2023-02-22T00:18:56.693Z,100307.31
2023-02-22T00:21:25.737Z,100299.69
2023-02-22T00:23:56.734Z,100307.25
2023-02-22T00:26:25.798Z,100310.16
2023-02-22T00:28:56.449Z,100307.47
2023-02-22T00:31:26.492Z,100309.63
2023-02-22T00:33:55.267Z,100314.13
2023-02-22T00:36:24.457Z,100317.28
2023-02-22T00:38:53.247Z,100314.81
2023-02-22T00:41:24.007Z,100322.09
2023-02-22T00:43:52.865Z,100319.72
2023-02-22T00:46:21.936Z,100321.56
2023-02-22T00:48:50.748Z,100317.31
2023-02-22T00:51:20.134Z,100321.03
2023-02-22T00:53:49.616Z,100320.59
2023-02-22T00:56:18.716Z,100325.16
2023-02-22T00:58:48.877Z,100333.06
2023-02-22T01:01:18.417Z,100333.13
2023-02-22T01:03:47.579Z,100335.88
2023-02-22T01:06:18.789Z,100338.59
2023-02-22T01:08:49.441Z,100350.94
2023-02-22T01:11:19.829Z,100352.84
2023-02-22T01:13:54.160Z,100350.38
2023-02-22T01:16:23.733Z,100357.72
2023-02-22T01:18:52.675Z,100360.69
2023-02-22T01:21:21.910Z,100364.47
2023-02-22T01:23:50.761Z,100355.25
2023-02-22T01:26:19.922Z,100372.28
2023-02-22T01:28:50.157Z,100374.28
2023-02-22T01:31:19.783Z,100377.09
2023-02-22T01:33:48.826Z,100377.16
2023-02-22T01:36:19.021Z,100387.97
2023-02-22T01:38:48.404Z,100381.13
2023-02-22T01:41:18.759Z,100386.50
2023-02-22T01:43:47.637Z,100379.59
2023-02-22T01:46:29.784Z,100385.84
2023-02-22T01:49:03.465Z,100384.25
2023-02-22T01:51:37.871Z,100386.09
2023-02-22T01:54:13.640Z,100383.59
2023-02-22T01:56:51.212Z,100391.53
2023-02-22T01:59:23.618Z,100385.88
2023-02-22T02:01:54.101Z,100392.06
2023-02-22T02:04:25.872Z,100389.44
2023-02-22T02:07:03.950Z,100398.44
2023-02-22T02:09:41.198Z,100401.03
2023-02-22T02:12:15.135Z,100398.56
2023-02-22T02:14:44.594Z,100404.00
2023-02-22T02:17:20.154Z,100408.31
2023-02-22T02:20:02.940Z,100406.31
2023-02-22T02:22:48.293Z,100410.78
2023-02-22T02:26:12.039Z,100404.75
2023-02-22T02:29:21.227Z,100408.25
2023-02-22T02:32:23.145Z,100411.69
2023-02-22T02:35:04.852Z,100412.72
2023-02-22T02:37:46.331Z,100416.34
2023-02-22T02:40:25.713Z,100416.50
2023-02-22T02:43:06.859Z,100423.38
2023-02-22T02:45:47.487Z,100417.44
2023-02-22T02:48:23.179Z,100421.88
2023-02-22T02:50:54.804Z,100428.84
2023-02-22T02:53:33.911Z,100417.88
2023-02-22T02:56:04.191Z,100422.41
2023-02-22T02:58:34.127Z,100431.00
2023-02-22T03:01:05.473Z,100428.34
2023-02-22T03:03:57.431Z,100423.19
2023-02-22T03:06:54.948Z,100422.25
2023-02-22T03:09:42.369Z,100436.03
2023-02-22T03:12:29.536Z,100437.03
2023-02-22T03:15:14.421Z,100434.75
2023-02-22T03:17:55.480Z,100440.13
2023-02-22T03:20:35.125Z,100441.16
2023-02-22T03:23:14.394Z,100444.81
2023-02-22T03:25:53.215Z,100450.16
2023-02-22T03:28:29.061Z,100442.56
2023-02-22T03:31:05.566Z,100460.72
2023-02-22T03:33:41.637Z,100452.19
2023-02-22T03:36:20.941Z,100456.72
2023-02-22T03:38:55.625Z,100456.72
2023-02-22T03:41:27.951Z,100464.63
2023-02-22T03:44:05.782Z,100458.84
2023-02-22T03:46:37.510Z,100463.78
2023-02-22T03:49:15.868Z,100469.72
2023-02-22T03:51:47.060Z,100458.47
2023-02-22T03:54:16.923Z,100473.09
2023-02-22T03:56:55.465Z,100470.50
2023-02-22T03:59:27.747Z,100476.50
2023-02-22T04:01:58.313Z,100472.03
2023-02-22T04:04:28.087Z,100470.28
2023-02-22T04:06:59.464Z,100472.84
2023-02-22T04:09:30.063Z,100467.63
2023-02-22T04:11:59.440Z,100469.25
2023-02-22T04:14:31.698Z,100479.66
2023-02-22T04:17:00.889Z,100477.00
2023-02-22T04:19:30.336Z,100480.44
2023-02-22T04:22:00.907Z,100479.59
2023-02-22T04:24:30.677Z,100486.38
2023-02-22T04:26:59.942Z,100485.59
2023-02-22T04:29:29.476Z,100497.03
2023-02-22T04:31:58.284Z,100497.03
2023-02-22T04:34:27.355Z,100493.56
2023-02-22T04:36:56.412Z,100497.81
2023-02-22T04:39:27.109Z,100493.34
2023-02-22T04:41:56.383Z,100500.88
2023-02-22T04:44:25.531Z,100498.19
2023-02-22T04:46:54.379Z,100497.97
2023-02-22T04:49:23.457Z,100506.00
2023-02-22T04:51:54.004Z,100506.81
2023-02-22T04:54:29.620Z,100509.38
2023-02-22T04:56:58.854Z,100504.75
2023-02-22T04:59:28.243Z,100509.91
2023-02-22T05:02:02.479Z,100517.75
2023-02-22T05:04:31.688Z,100519.47
2023-02-22T05:07:00.572Z,100518.56
2023-02-22T05:09:31.025Z,100520.56
2023-02-22T05:11:59.774Z,100518.41
2023-02-22T05:14:28.834Z,100529.81
2023-02-22T05:16:59.088Z,100532.53
2023-02-22T05:19:28.197Z,100531.72
2023-02-22T05:21:57.712Z,100533.38
2023-02-22T05:24:26.858Z,100532.38
2023-02-22T05:26:56.987Z,100534.13
2023-02-22T05:29:26.133Z,100535.94
2023-02-22T05:31:55.044Z,100535.81
2023-02-22T05:34:24.122Z,100542.66
2023-02-22T05:36:53.051Z,100543.56
2023-02-22T05:39:22.113Z,100544.41
2023-02-22T05:41:51.317Z,100550.34
2023-02-22T05:44:22.053Z,100552.03
2023-02-22T05:46:50.910Z,100554.69
2023-02-22T05:49:20.060Z,100559.06
2023-02-22T05:51:48.864Z,100561.66
2023-02-22T05:54:18.117Z,100569.47
2023-02-22T05:56:48.010Z,100572.94
2023-02-22T05:59:17.092Z,100567.75
2023-02-22T06:01:47.375Z,100573.03
2023-02-22T06:04:16.487Z,100587.72
2023-02-22T06:06:45.872Z,100591.97
2023-02-22T06:09:14.887Z,100594.59
2023-02-22T06:11:43.707Z,100594.44
2023-02-22T06:14:12.766Z,100596.84
2023-02-22T06:16:41.581Z,100603.63
2023-02-22T06:19:12.063Z,100604.31
2023-02-22T06:21:42.052Z,100605.13
2023-02-22T06:24:12.083Z,100611.91
2023-02-22T06:26:40.838Z,100616.06
2023-02-22T06:29:09.882Z,100622.88
2023-02-22T06:31:38.779Z,100627.13
2023-02-22T06:34:07.856Z,100630.34
2023-02-22T06:36:38.056Z,100628.47
2023-02-22T06:39:07.102Z,100625.81
2023-02-22T06:41:39.268Z,100636.06
2023-02-22T06:44:08.432Z,100641.19
2023-02-22T06:46:37.493Z,100643.63
2023-02-22T06:49:07.280Z,100636.69
2023-02-22T06:51:39.174Z,100650.34
2023-02-22T06:54:08.253Z,100640.72
2023-02-22T06:56:37.037Z,100639.63
2023-02-22T06:59:06.235Z,100646.69
2023-02-22T07:01:35.178Z,100648.34
2023-02-22T07:04:04.876Z,100648.00
2023-02-22T07:06:33.699Z,100648.72
2023-02-22T07:09:04.970Z,100638.25
2023-02-22T07:11:33.900Z,100651.84
2023-02-22T07:14:02.978Z,100657.72
2023-02-22T07:16:31.833Z,100656.06
2023-02-22T07:19:01.512Z,100661.22
2023-02-22T07:21:31.414Z,100658.38
2023-02-22T07:24:00.716Z,100662.94
2023-02-22T07:26:30.953Z,100662.88
2023-02-22T07:29:00.030Z,100662.75
2023-02-22T07:31:29.702Z,100661.84
2023-02-22T07:33:58.884Z,100661.88
2023-02-22T07:36:27.756Z,100664.38
2023-02-22T07:38:56.835Z,100661.72
2023-02-22T07:41:26.645Z,100659.59
2023-02-22T07:43:57.103Z,100662.75
2023-02-22T07:46:25.859Z,100664.09
2023-02-22T07:48:54.930Z,100661.34
2023-02-22T07:51:24.003Z,100657.00
2023-02-22T07:53:53.078Z,100667.38
2023-02-22T07:56:21.908Z,100661.94
2023-02-22T07:58:51.061Z,100657.44
2023-02-22T08:01:21.189Z,100662.31
2023-02-22T08:03:50.328Z,100659.44
2023-02-22T08:06:20.981Z,100653.13
2023-02-22T08:08:50.102Z,100670.25
2023-02-22T08:11:19.296Z,100664.97
2023-02-22T08:13:48.472Z,100671.75
2023-02-22T08:16:18.385Z,100671.56
2023-02-22T08:18:48.904Z,100673.97
2023-02-22T08:21:18.703Z,100673.75
2023-02-22T08:23:54.622Z,100683.38
2023-02-22T08:26:25.441Z,100679.97
2023-02-22T08:28:54.659Z,100677.84
2023-02-22T08:31:23.506Z,100682.13
2023-02-22T08:33:53.968Z,100686.38
2023-02-22T08:36:22.788Z,100683.38
2023-02-22T08:38:51.836Z,100691.00
2023-02-22T08:41:20.640Z,100687.41
2023-02-22T08:43:49.733Z,100689.00
2023-02-22T08:46:18.944Z,100687.81
2023-02-22T08:48:53.700Z,100687.34
2023-02-22T08:51:22.994Z,100696.94
2023-02-22T08:53:54.833Z,100696.75
2023-02-22T08:56:24.319Z,100702.69
2023-02-22T08:58:53.364Z,100708.56
2023-02-22T09:01:32.629Z,100707.91
2023-02-22T09:04:03.907Z,100703.88
2023-02-22T09:06:32.991Z,100705.75
2023-02-22T09:09:02.235Z,100708.69
2023-02-22T09:11:31.084Z,100713.72
2023-02-22T09:14:00.123Z,100705.88
2023-02-22T09:16:29.259Z,100710.31
2023-02-22T09:18:58.391Z,100703.34
2023-02-22T09:21:29.269Z,100702.41
2023-02-22T09:23:58.552Z,100707.25
2023-02-22T09:26:27.897Z,100716.66
2023-02-22T09:28:56.951Z,100717.13
2023-02-22T09:31:25.862Z,100722.22
2023-02-22T09:33:54.944Z,100722.97
2023-02-22T09:36:26.112Z,100723.03
2023-02-22T09:38:58.897Z,100716.13
2023-02-22T09:41:36.276Z,100720.38
2023-02-22T09:44:24.012Z,100713.84
2023-02-22T09:46:56.223Z,100717.81
2023-02-22T09:49:33.589Z,100720.41
2023-02-22T09:52:11.577Z,100723.44
2023-02-22T09:54:51.849Z,100727.63
2023-02-22T09:57:32.077Z,100730.53
2023-02-22T10:00:13.634Z,100728.25
2023-02-22T10:03:00.225Z,100733.22
2023-02-22T10:05:37.677Z,100728.19
2023-02-22T10:08:13.062Z,100734.13
2023-02-22T10:10:46.546Z,100724.53
2023-02-22T10:13:29.996Z,100730.47
2023-02-22T10:16:10.860Z,100743.00
2023-02-22T10:19:32.422Z,100733.06
2023-02-22T10:22:33.322Z,100741.28
2023-02-22T10:25:09.569Z,100737.31
2023-02-22T10:27:47.883Z,100735.63
2023-02-22T10:30:25.658Z,100739.84
2023-02-22T10:33:06.470Z,100744.75
2023-02-22T10:35:41.162Z,100741.28
2023-02-22T10:38:20.306Z,100738.09
2023-02-22T10:40:57.896Z,100737.19
2023-02-22T10:43:28.764Z,100747.88
2023-02-22T10:46:02.868Z,100755.94
2023-02-22T10:48:37.756Z,100762.63
2023-02-22T10:51:10.486Z,100757.88
2023-02-22T10:53:40.515Z,100759.69
2023-02-22T10:56:16.003Z,100760.59
2023-02-22T10:58:52.789Z,100752.19
2023-02-22T11:01:35.440Z,100754.78
2023-02-22T11:04:13.574Z,100758.88
2023-02-22T11:06:46.508Z,100755.25
2023-02-22T11:09:19.018Z,100748.69
2023-02-22T11:11:50.735Z,100750.50
2023-02-22T11:14:31.073Z,100750.50
2023-02-22T11:17:02.751Z,100755.44
2023-02-22T11:19:34.400Z,100755.16
2023-02-22T11:22:15.906Z,100757.41
2023-02-22T11:27:31.731Z,100757.47
2023-02-22T11:30:22.840Z,100759.03
2023-02-22T11:32:59.237Z,100764.91
2023-02-22T11:35:41.390Z,100763.19
2023-02-22T11:38:21.250Z,100767.72
2023-02-22T11:41:18.523Z,100752.47
2023-02-22T11:43:50.360Z,100764.06
2023-02-22T11:46:23.653Z,100762.06
2023-02-22T11:49:02.292Z,100765.03
2023-02-22T11:51:52.927Z,100768.88
2023-02-22T11:54:43.531Z,100769.41
2023-02-22T11:57:32.046Z,100762.63
2023-02-22T12:00:24.757Z,100758.38
2023-02-22T12:03:19.834Z,100765.41
2023-02-22T12:06:19.631Z,100761.25
2023-02-22T12:09:07.825Z,100760.50
2023-02-22T12:11:50.370Z,100767.06
2023-02-22T12:14:34.187Z,100760.31
2023-02-22T12:17:27.314Z,100764.25
2023-02-22T12:20:07.663Z,100767.41
2023-02-22T12:22:43.483Z,100769.91
2023-02-22T12:25:23.864Z,100767.13
2023-02-22T12:27:59.041Z,100768.31
2023-02-22T12:30:34.143Z,100766.56
2023-02-22T12:33:13.300Z,100767.72
2023-02-22T12:35:51.470Z,100775.94
2023-02-22T12:38:26.522Z,100777.59
2023-02-22T12:41:05.024Z,100773.78
2023-02-22T12:43:41.800Z,100777.84
2023-02-22T12:46:18.637Z,100776.69
2023-02-22T12:48:55.372Z,100779.00
2023-02-22T12:51:35.942Z,100785.44
2023-02-22T12:54:17.506Z,100788.41
2023-02-22T12:56:55.739Z,100794.59
2023-02-22T12:59:33.854Z,100790.38
2023-02-22T13:02:15.688Z,100799.69
2023-02-22T13:04:44.789Z,100798.78
2023-02-22T13:07:34.291Z,100803.03
2023-02-22T13:10:52.031Z,100808.38
2023-02-22T13:13:30.309Z,100807.03
2023-02-22T13:16:14.720Z,100809.56
2023-02-22T13:18:54.367Z,100817.50
2023-02-22T13:21:38.226Z,100818.34
2023-02-22T13:24:24.344Z,100816.88
2023-02-22T13:27:00.369Z,100824.09
2023-02-22T13:29:37.949Z,100823.34
2023-02-22T13:32:39.311Z,100823.47
2023-02-22T13:35:35.136Z,100823.72
2023-02-22T13:38:30.454Z,100817.19
2023-02-22T13:41:44.612Z,100820.63
2023-02-22T13:44:57.308Z,100816.56
2023-02-22T13:48:25.551Z,100807.28
2023-02-22T13:51:10.277Z,100812.34
2023-02-22T13:53:50.510Z,100812.34
2023-02-22T13:56:23.639Z,100817.69
2023-02-22T13:58:56.529Z,100813.28
2023-02-22T14:01:48.083Z,100819.06
2023-02-22T14:04:44.310Z,100819.00
2023-02-22T14:07:51.361Z,100834.75
2023-02-22T14:10:48.571Z,100832.56
2023-02-22T14:13:22.642Z,100838.75
2023-02-22T14:16:25.933Z,100833.31
2023-02-22T14:19:06.564Z,100831.19
2023-02-22T14:21:36.887Z,100836.38
2023-02-22T14:24:13.576Z,100839.78
2023-02-22T14:26:59.403Z,100830.56
2023-02-22T14:29:29.937Z,100833.34
2023-02-22T14:32:07.606Z,100844.69
2023-02-22T14:34:48.767Z,100841.19
2023-02-22T14:37:22.036Z,100844.69
2023-02-22T14:39:58.369Z,100851.06
2023-02-22T14:42:35.832Z,100847.13
2023-02-22T14:45:21.844Z,100837.56
2023-02-22T14:48:04.023Z,100846.41
2023-02-22T14:50:48.778Z,100849.94
2023-02-22T14:53:28.407Z,100851.59
2023-02-22T14:56:03.467Z,100848.38
2023-02-22T14:58:41.985Z,100849.06
2023-02-22T15:01:47.488Z,100845.69
2023-02-22T15:04:26.858Z,100849.44
2023-02-22T15:06:58.151Z,100844.41
2023-02-22T15:09:32.871Z,100851.44
2023-02-22T15:12:22.225Z,100848.09
2023-02-22T15:14:51.778Z,100843.84
2023-02-22T15:17:27.164Z,100835.34
2023-02-22T15:19:56.941Z,100846.81
2023-02-22T15:22:31.081Z,100836.31
2023-02-22T15:25:03.349Z,100845.94
2023-02-22T15:27:36.852Z,100851.19
2023-02-22T15:30:10.781Z,100853.72
2023-02-22T15:32:56.998Z,100851.94
2023-02-22T15:35:34.594Z,100849.50
2023-02-22T15:38:07.535Z,100853.13
2023-02-22T15:40:42.968Z,100862.69
2023-02-22T15:43:24.172Z,100864.53
2023-02-22T15:45:54.232Z,100863.59
2023-02-22T15:48:26.353Z,100862.25
2023-02-22T15:51:12.446Z,100858.69
2023-02-22T15:53:47.954Z,100863.94
2023-02-22T15:56:26.497Z,100868.41
2023-02-22T15:59:04.689Z,100872.72
2023-02-22T16:01:42.087Z,100878.78
2023-02-22T16:04:20.864Z,100882.25
2023-02-22T16:06:52.385Z,100883.97
2023-02-22T16:09:26.248Z,100885.59
2023-02-22T16:12:10.734Z,100889.38
2023-02-22T16:14:46.131Z,100888.81
2023-02-22T16:17:36.443Z,100891.53
2023-02-22T16:20:37.310Z,100890.88
2023-02-22T16:23:25.429Z,100892.88
2023-02-22T16:26:19.437Z,100894.47
2023-02-22T16:28:52.450Z,100892.69
2023-02-22T16:31:25.307Z,100900.69
2023-02-22T16:33:55.910Z,100906.63
2023-02-22T16:36:40.133Z,100903.97
2023-02-22T16:39:19.055Z,100910.22
2023-02-22T16:41:48.080Z,100913.78
2023-02-22T16:44:17.409Z,100913.03
2023-02-22T16:46:46.399Z,100914.91
2023-02-22T16:49:15.859Z,100919.13
2023-02-22T16:51:50.661Z,100922.56
2023-02-22T16:54:26.640Z,100916.53
2023-02-22T16:57:02.054Z,100926.91
2023-02-22T16:59:37.407Z,100923.53
2023-02-22T17:02:08.335Z,100925.47
2023-02-22T17:04:37.416Z,100930.78
2023-02-22T17:07:09.370Z,100932.47
2023-02-22T17:09:39.577Z,100931.59
2023-02-22T17:12:09.707Z,100936.78
2023-02-22T17:14:41.004Z,100946.38
2023-02-22T17:17:12.213Z,100932.28
2023-02-22T17:19:41.275Z,100933.97
2023-02-22T17:22:19.550Z,100939.94
2023-02-22T17:24:49.076Z,100939.03
2023-02-22T17:27:17.869Z,100939.84
2023-02-22T17:29:47.970Z,100934.88
2023-02-22T17:32:17.333Z,100932.88
2023-02-22T17:34:46.442Z,100933.66
2023-02-22T17:37:16.589Z,100936.16
2023-02-22T17:39:45.655Z,100924.97
2023-02-22T17:42:15.618Z,100935.38
2023-02-22T17:44:44.675Z,100934.41
2023-02-22T17:47:13.481Z,100933.56
2023-02-22T17:49:44.231Z,100931.78
2023-02-22T17:52:15.672Z,100931.69
2023-02-22T17:54:46.195Z,100930.97
2023-02-22T17:57:15.418Z,100937.75
2023-02-22T17:59:44.494Z,100926.47
2023-02-22T18:02:13.411Z,100934.19
2023-02-22T18:04:42.462Z,100940.97
2023-02-22T18:07:13.234Z,100939.25
2023-02-22T18:09:42.972Z,100932.38
2023-02-22T18:12:13.580Z,100934.03
2023-02-22T18:14:42.725Z,100934.91
2023-02-22T18:17:11.526Z,100944.47
2023-02-22T18:19:41.748Z,100945.34
2023-02-22T18:22:10.547Z,100951.38
2023-02-22T18:24:39.660Z,100947.13
2023-02-22T18:27:08.538Z,100954.03
2023-02-22T18:29:39.056Z,100952.25
2023-02-22T18:32:12.648Z,100954.03
2023-02-22T18:34:42.367Z,100962.81
2023-02-22T18:37:11.279Z,100965.25
2023-02-22T18:39:42.938Z,100953.13
2023-02-22T18:42:14.665Z,100966.06
2023-02-22T18:44:45.109Z,100950.34
2023-02-22T18:47:13.856Z,100952.91
2023-02-22T18:49:43.057Z,100951.22
2023-02-22T18:52:12.229Z,100954.78
2023-02-22T18:54:42.979Z,100952.13
2023-02-22T18:57:13.810Z,100952.25
2023-02-22T18:59:44.920Z,100950.53
2023-02-22T19:02:15.905Z,100945.28
2023-02-22T19:04:45.162Z,100943.66
2023-02-22T19:07:17.995Z,100941.28
2023-02-22T19:09:51.070Z,100938.81
2023-02-22T19:12:20.568Z,100938.78
2023-02-22T19:14:50.995Z,100938.81
2023-02-22T19:17:21.544Z,100941.50
2023-02-22T19:19:50.701Z,100944.66
2023-02-22T19:22:19.478Z,100939.56
2023-02-22T19:24:48.578Z,100941.28
2023-02-22T19:27:17.363Z,100944.03
2023-02-22T19:29:47.686Z,100953.03
2023-02-22T19:32:19.397Z,100952.16
2023-02-22T19:34:48.544Z,100954.47
2023-02-22T19:37:18.803Z,100963.34
2023-02-22T19:39:47.912Z,100965.31
2023-02-22T19:42:16.685Z,100964.44
2023-02-22T19:44:45.773Z,100957.63
2023-02-22T19:47:14.623Z,100956.91
2023-02-22T19:49:45.123Z,100953.31
2023-02-22T19:52:13.932Z,100961.91
2023-02-22T19:54:44.524Z,100963.56
2023-02-22T19:57:13.467Z,100963.69
2023-02-22T19:59:42.655Z,100965.63
2023-02-22T20:02:13.028Z,100963.84
2023-02-22T20:04:42.226Z,100967.22
2023-02-22T20:07:12.584Z,100967.19
2023-02-22T20:09:43.203Z,100968.91
2023-02-22T20:12:12.115Z,100973.44
2023-02-22T20:14:41.212Z,100969.31
2023-02-22T20:17:10.334Z,100964.84
2023-02-22T20:19:40.667Z,100967.53
2023-02-22T20:22:11.602Z,100967.66
2023-02-22T20:24:40.820Z,100972.97
2023-02-22T20:27:09.728Z,100976.53
2023-02-22T20:29:38.848Z,100967.91
2023-02-22T20:32:11.492Z,100975.56
2023-02-22T20:34:40.671Z,100977.16
2023-02-22T20:37:09.471Z,100973.59
2023-02-22T20:39:40.313Z,100976.34
2023-02-22T20:42:10.929Z,100979.81
2023-02-22T20:44:40.109Z,100979.84
2023-02-22T20:47:09.064Z,100975.41
2023-02-22T20:49:38.347Z,100978.16
2023-02-22T20:52:07.392Z,100969.34
2023-02-22T20:54:38.032Z,100978.84
2023-02-22T20:57:08.748Z,100981.50
2023-02-22T20:59:37.954Z,100973.69
2023-02-22T21:02:07.529Z,100970.19
2023-02-22T21:04:36.650Z,100964.16
2023-02-22T21:07:05.482Z,100961.41
2023-02-22T21:09:34.557Z,100956.25
2023-02-22T21:12:04.293Z,100960.53
2023-02-22T21:14:34.872Z,100962.41
2023-02-22T21:17:04.650Z,100959.06
2023-02-22T21:19:33.898Z,100965.28
2023-02-22T21:22:08.207Z,100959.13
2023-02-22T21:24:38.026Z,100966.16
2023-02-22T21:27:07.037Z,100969.69
2023-02-22T21:29:37.683Z,100968.66
2023-02-22T21:32:08.725Z,100973.13
2023-02-22T21:34:39.686Z,100977.53
2023-02-22T21:37:08.625Z,100974.88
2023-02-22T21:39:37.712Z,100977.56
2023-02-22T21:42:07.606Z,100977.75
2023-02-22T21:44:38.212Z,100971.75
2023-02-22T21:47:07.514Z,100970.91
2023-02-22T21:49:38.092Z,100975.41
2023-02-22T21:52:07.872Z,100973.78
2023-02-22T21:54:37.249Z,100972.88
2023-02-22T21:57:06.902Z,100975.41
2023-02-22T21:59:39.440Z,100970.06
2023-02-22T22:02:11.206Z,100977.06
2023-02-22T22:04:40.312Z,100974.66
2023-02-22T22:07:09.110Z,100975.81
2023-02-22T22:09:41.353Z,100978.66
2023-02-22T22:12:11.738Z,100976.94
2023-02-22T22:14:42.768Z,100981.25
2023-02-22T22:17:13.152Z,100969.81
2023-02-22T22:19:44.476Z,100979.31
2023-02-22T22:22:13.423Z,100983.78
2023-02-22T22:24:45.841Z,100986.53
2023-02-22T22:27:15.106Z,100979.69
2023-02-22T22:29:45.573Z,100971.75
2023-02-22T22:32:14.479Z,100975.31
2023-02-22T22:34:43.646Z,100977.97
2023-02-22T22:37:13.280Z,100975.53
2023-02-22T22:39:42.516Z,100975.47
2023-02-22T22:42:11.545Z,100976.38
2023-02-22T22:44:42.274Z,100978.91
2023-02-22T22:47:13.718Z,100983.09
2023-02-22T22:49:43.019Z,100982.16
2023-02-22T22:52:14.587Z,100975.31
2023-02-22T22:54:44.777Z,100973.63
2023-02-22T22:57:13.743Z,100980.50
2023-02-22T22:59:43.139Z,100973.56
2023-02-22T23:02:13.337Z,100972.13
2023-02-22T23:04:42.428Z,100979.81
2023-02-22T23:07:11.195Z,100972.25
2023-02-22T23:09:42.251Z,100973.09
2023-02-22T23:12:16.947Z,100985.03
2023-02-22T23:14:47.091Z,100983.41
2023-02-22T23:17:31.460Z,100980.75
2023-02-22T23:20:00.934Z,100977.38
2023-02-22T23:22:29.828Z,100982.44
2023-02-22T23:25:00.964Z,100982.66
2023-02-22T23:27:30.360Z,100981.88
2023-02-22T23:29:59.462Z,100981.03
2023-02-22T23:32:29.625Z,100978.56
2023-02-22T23:34:58.716Z,100981.31
2023-02-22T23:37:27.541Z,100971.81
2023-02-22T23:39:56.591Z,100964.06
2023-02-22T23:42:25.351Z,100964.22
2023-02-22T23:44:54.431Z,100963.59
2023-02-22T23:47:23.257Z,100963.75
2023-02-22T23:49:54.598Z,100963.06
2023-02-22T23:52:24.887Z,100961.28
2023-02-22T23:54:54.569Z,100960.31
2023-02-22T23:57:24.729Z,100962.00
2023-02-22T23:59:53.821Z,100962.91
